createdAt,value
2023-01-09T01:41:38.522Z,0.79
2023-01-09T01:42:38.518Z,0.77
2023-01-09T01:43:38.477Z,0.78
2023-01-09T01:44:38.445Z,0.77
2023-01-09T01:45:38.439Z,0.79
2023-01-09T01:46:38.399Z,0.78
2023-01-09T01:48:38.349Z,0.77
2023-01-09T01:49:38.337Z,0.79
2023-01-09T01:50:38.304Z,0.78
2023-01-09T01:51:38.293Z,0.78
2023-01-09T01:52:38.259Z,0.78
2023-01-09T01:53:38.243Z,0.79
2023-01-09T01:54:38.199Z,0.77
2023-01-09T01:55:38.180Z,0.77
2023-01-09T01:56:38.157Z,0.77
2023-01-09T01:57:38.131Z,0.79
2023-01-09T01:58:38.110Z,0.77
2023-01-09T01:59:38.082Z,0.78
2023-01-09T02:00:38.055Z,0.78
2023-01-09T02:01:38.218Z,0.78
2023-01-09T02:02:38.064Z,0.78
2023-01-09T02:03:37.980Z,0.77
2023-01-09T02:04:37.971Z,0.77
2023-01-09T02:05:37.932Z,0.77
2023-01-09T02:06:37.901Z,0.79
2023-01-09T02:07:37.891Z,0.77
2023-01-09T02:08:37.864Z,0.79
2023-01-09T02:09:37.834Z,0.78
2023-01-09T02:10:37.804Z,0.77
2023-01-09T02:11:37.788Z,0.76
2023-01-09T02:12:37.763Z,0.78
2023-01-09T02:13:37.752Z,0.77
2023-01-09T02:14:37.732Z,0.78
2023-01-09T02:15:37.702Z,0.77
2023-01-09T02:16:37.667Z,0.76
2023-01-09T02:17:37.635Z,0.78
2023-01-09T02:18:37.620Z,0.77
2023-01-09T02:19:37.594Z,0.78
2023-01-09T02:20:37.565Z,0.77
2023-01-09T02:21:37.535Z,0.77
2023-01-09T02:22:37.598Z,0.76
2023-01-09T02:23:37.485Z,0.77
2023-01-09T02:24:37.450Z,0.78
2023-01-09T02:25:37.447Z,0.76
2023-01-09T02:26:37.403Z,0.76
2023-01-09T02:27:37.382Z,0.78
2023-01-09T02:28:37.350Z,0.77
2023-01-09T02:29:37.321Z,0.77
2023-01-09T02:30:37.302Z,0.76
2023-01-09T02:31:37.346Z,0.76
2023-01-09T02:32:37.245Z,0.77
2023-01-09T02:33:37.222Z,0.78
2023-01-09T02:34:37.193Z,0.77
2023-01-09T02:35:37.165Z,0.77
2023-01-09T02:36:37.139Z,0.78
2023-01-09T02:37:37.115Z,0.77
2023-01-09T02:38:37.086Z,0.76
2023-01-09T02:39:37.059Z,0.75
2023-01-09T02:40:37.033Z,0.75
2023-01-09T02:41:37.004Z,0.75
2023-01-09T02:42:36.972Z,0.76
2023-01-09T02:43:36.941Z,0.76
2023-01-09T02:44:37.011Z,0.77
2023-01-09T02:45:36.908Z,0.75
2023-01-09T02:46:36.852Z,0.75
2023-01-09T02:47:36.911Z,0.75
2023-01-09T02:48:36.813Z,0.75
2023-01-09T02:49:36.772Z,0.75
2023-01-09T02:50:36.756Z,0.76
2023-01-09T02:51:36.727Z,0.75
2023-01-09T02:52:36.718Z,0.78
2023-01-09T02:53:36.704Z,0.77
2023-01-09T02:54:36.668Z,0.75
2023-01-09T02:55:36.637Z,0.75
2023-01-09T02:56:36.609Z,0.76
2023-01-09T02:57:36.587Z,0.74
2023-01-09T02:58:36.572Z,0.76
2023-01-09T02:59:36.540Z,0.74
2023-01-09T03:00:36.518Z,0.74
2023-01-09T03:01:36.599Z,0.75
2023-01-09T03:02:36.493Z,0.75
2023-01-09T03:03:36.446Z,0.75
2023-01-09T03:04:36.425Z,0.75
2023-01-09T03:05:36.398Z,0.75
2023-01-09T03:06:36.384Z,0.76
2023-01-09T03:07:36.358Z,0.75
2023-01-09T03:08:36.333Z,0.77
2023-01-09T03:09:36.302Z,0.74
2023-01-09T03:10:36.279Z,0.75
2023-01-09T03:11:36.247Z,0.76
2023-01-09T03:12:36.225Z,0.74
2023-01-09T03:13:36.209Z,0.74
2023-01-09T03:14:36.182Z,0.76
2023-01-09T03:15:36.158Z,0.75
2023-01-09T03:16:36.173Z,0.74
2023-01-09T03:17:36.111Z,0.75
2023-01-09T03:18:36.089Z,0.76
2023-01-09T03:19:36.071Z,0.75
2023-01-09T03:20:36.053Z,0.75
2023-01-09T03:21:36.029Z,0.76
2023-01-09T03:22:36.004Z,0.75
2023-01-09T03:23:35.977Z,0.75
2023-01-09T03:24:35.955Z,0.76
2023-01-09T03:25:35.929Z,0.74
2023-01-09T03:26:35.908Z,0.74
2023-01-09T03:27:35.876Z,0.73
2023-01-09T03:28:35.860Z,0.75
2023-01-09T03:29:35.839Z,0.76
2023-01-09T03:30:35.817Z,0.74
2023-01-09T03:31:35.853Z,0.74
2023-01-09T03:32:35.779Z,0.73
2023-01-09T03:33:35.750Z,0.73
2023-01-09T03:34:35.731Z,0.73
2023-01-09T03:35:35.711Z,0.73
2023-01-09T03:36:35.685Z,0.73
2023-01-09T03:37:35.664Z,0.74
2023-01-09T03:38:35.671Z,0.74
2023-01-09T03:39:35.639Z,0.76
2023-01-09T03:40:35.626Z,0.73
2023-01-09T03:41:35.586Z,0.75
2023-01-09T03:42:35.578Z,0.74
2023-01-09T03:43:35.569Z,0.75
2023-01-09T03:44:35.587Z,0.74
2023-01-09T03:45:35.574Z,0.73
2023-01-09T03:46:35.510Z,0.73
2023-01-09T03:47:35.468Z,0.75
2023-01-09T03:48:35.451Z,0.73
2023-01-09T03:49:35.441Z,0.74
2023-01-09T03:50:35.411Z,0.73
2023-01-09T03:51:35.384Z,0.72
2023-01-09T03:52:35.371Z,0.74
2023-01-09T03:53:35.348Z,0.74
2023-01-09T03:54:35.353Z,0.74
2023-01-09T03:55:35.293Z,0.74
2023-01-09T03:56:35.273Z,0.73
2023-01-09T03:57:35.252Z,0.73
2023-01-09T03:58:35.232Z,0.73
2023-01-09T03:59:35.207Z,0.73
2023-01-09T04:00:35.181Z,0.74
2023-01-09T04:01:35.278Z,0.74
2023-01-09T04:02:35.131Z,0.72
2023-01-09T04:03:35.099Z,0.72
2023-01-09T04:04:35.068Z,0.72
2023-01-09T04:05:35.055Z,0.74
2023-01-09T04:06:35.022Z,0.74
2023-01-09T04:07:34.997Z,0.73
2023-01-09T04:08:34.967Z,0.72
2023-01-09T04:09:34.939Z,0.72
2023-01-09T04:10:34.929Z,0.72
2023-01-09T04:11:34.906Z,0.73
2023-01-09T04:12:34.876Z,0.73
2023-01-09T04:13:34.854Z,0.73
2023-01-09T04:14:34.843Z,0.72
2023-01-09T04:15:34.811Z,0.74
2023-01-09T04:16:34.963Z,0.74
2023-01-09T04:17:34.769Z,0.73
2023-01-09T04:18:34.753Z,0.72
2023-01-09T04:19:34.740Z,0.72
2023-01-09T04:20:34.715Z,0.74
2023-01-09T04:21:34.692Z,0.73
2023-01-09T04:22:34.668Z,0.73
2023-01-09T04:23:34.648Z,0.71
2023-01-09T04:24:34.622Z,0.73
2023-01-09T04:25:34.613Z,0.72
2023-01-09T04:26:34.580Z,0.73
2023-01-09T04:27:34.561Z,0.74
2023-01-09T04:28:34.534Z,0.72
2023-01-09T04:29:34.511Z,0.73
2023-01-09T04:30:34.491Z,0.72
2023-01-09T04:31:34.527Z,0.72
2023-01-09T04:32:34.444Z,0.72
2023-01-09T04:33:34.413Z,0.73
2023-01-09T04:34:34.397Z,0.74
2023-01-09T04:35:34.364Z,0.73
2023-01-09T04:36:34.386Z,0.73
2023-01-09T04:37:34.320Z,0.72
2023-01-09T04:38:34.301Z,0.72
2023-01-09T04:39:34.276Z,0.72
2023-01-09T04:40:34.263Z,0.73
2023-01-09T04:41:34.232Z,0.72
2023-01-09T04:42:34.211Z,0.71
2023-01-09T04:43:34.181Z,0.73
2023-01-09T04:44:34.165Z,0.72
2023-01-09T04:45:34.177Z,0.71
2023-01-09T04:46:34.108Z,0.72
2023-01-09T04:47:34.082Z,0.73
2023-01-09T04:48:34.056Z,0.73
2023-01-09T04:49:34.032Z,0.70
2023-01-09T04:50:34.005Z,0.72
2023-01-09T04:51:33.972Z,0.71
2023-01-09T04:52:33.946Z,0.71
2023-01-09T04:53:33.917Z,0.71
2023-01-09T04:54:33.897Z,0.71
2023-01-09T04:55:33.861Z,0.72
2023-01-09T04:56:33.855Z,0.71
2023-01-09T04:57:33.813Z,0.72
2023-01-09T04:58:33.790Z,0.70
2023-01-09T04:59:33.753Z,0.70
2023-01-09T05:00:33.730Z,0.71
2023-01-09T05:01:33.877Z,0.71
2023-01-09T05:02:33.677Z,0.72
2023-01-09T05:03:33.653Z,0.70
2023-01-09T05:04:33.675Z,0.71
2023-01-09T05:05:33.602Z,0.71
2023-01-09T05:06:33.573Z,0.72
2023-01-09T05:07:33.543Z,0.70
2023-01-09T05:08:33.523Z,0.69
2023-01-09T05:09:33.496Z,0.71
2023-01-09T05:10:33.460Z,0.70
2023-01-09T05:11:33.444Z,0.70
2023-01-09T05:12:33.413Z,0.71
2023-01-09T05:13:33.388Z,0.69
2023-01-09T05:14:33.365Z,0.69
2023-01-09T05:15:33.323Z,0.70
2023-01-09T05:16:33.344Z,0.68
2023-01-09T05:17:33.274Z,0.70
2023-01-09T05:18:33.249Z,0.70
2023-01-09T05:19:33.225Z,0.70
2023-01-09T05:20:33.213Z,0.70
2023-01-09T05:21:33.257Z,0.69
2023-01-09T05:22:33.146Z,0.70
2023-01-09T05:23:33.112Z,0.69
2023-01-09T05:24:33.107Z,0.70
2023-01-09T05:25:33.075Z,0.70
2023-01-09T05:26:33.054Z,0.70
2023-01-09T05:27:33.043Z,0.70
2023-01-09T05:28:33.014Z,0.70
2023-01-09T05:29:33.000Z,0.69
2023-01-09T05:30:32.972Z,0.69
2023-01-09T05:31:32.974Z,0.70
2023-01-09T09:45:26.454Z,1.56
2023-01-09T11:28:25.245Z,13.34
2023-01-09T11:29:25.166Z,13.23
2023-01-09T11:30:25.144Z,13.19
2023-01-09T11:31:25.168Z,13.52
2023-01-09T11:32:25.095Z,13.35
2023-01-09T11:33:25.071Z,13.29
2023-01-09T11:34:25.037Z,13.12
2023-01-09T11:35:25.048Z,13.28
2023-01-09T11:36:25.389Z,13.40
2023-01-09T11:37:24.968Z,12.97
2023-01-09T11:38:24.954Z,13.24
2023-01-09T11:39:24.925Z,13.65
2023-01-09T11:40:24.902Z,14.19
2023-01-09T11:41:24.860Z,14.11
2023-01-09T11:42:24.829Z,13.54
2023-01-09T11:43:24.808Z,13.66
2023-01-09T11:44:24.782Z,13.71
2023-01-09T11:45:24.752Z,13.20
2023-01-09T11:46:24.778Z,11.94
2023-01-09T11:47:24.707Z,11.31
2023-01-09T11:48:24.673Z,11.63
2023-01-09T11:49:24.653Z,12.05
2023-01-09T11:50:24.620Z,12.01
2023-01-09T11:51:24.615Z,11.51
2023-01-09T11:52:24.573Z,10.19
2023-01-09T11:53:24.555Z,9.84
2023-01-09T11:54:24.528Z,9.84
2023-01-09T11:55:29.334Z,10.25
2023-01-09T11:57:24.500Z,9.93
2023-01-09T11:58:24.460Z,8.72
2023-01-09T11:59:24.427Z,8.75
2023-01-09T12:00:24.434Z,9.15
2023-01-09T12:01:24.406Z,9.87
2023-01-09T12:02:24.391Z,10.41
2023-01-09T12:03:24.368Z,11.77
2023-01-09T12:04:24.332Z,13.87
2023-01-09T12:05:24.312Z,14.58
2023-01-09T12:06:24.311Z,17.01
2023-01-09T12:07:24.283Z,18.41
2023-01-09T12:08:24.265Z,18.42
2023-01-09T12:09:24.230Z,18.28
2023-01-09T12:10:24.206Z,17.99
2023-01-09T12:11:24.179Z,17.00
2023-01-09T12:12:24.174Z,18.40
2023-01-09T12:13:24.150Z,18.42
2023-01-09T12:14:24.129Z,18.86
2023-01-09T12:15:24.106Z,16.76
2023-01-09T12:16:24.144Z,16.54
2023-01-09T12:17:24.075Z,16.31
2023-01-09T12:18:24.095Z,17.13
2023-01-09T12:19:24.022Z,16.91
2023-01-09T12:20:24.018Z,16.07
2023-01-09T12:21:23.996Z,15.02
2023-01-09T12:22:23.960Z,14.89
2023-01-09T12:23:23.948Z,15.68
2023-01-09T12:24:23.931Z,15.14
2023-01-09T12:25:23.904Z,15.45
2023-01-09T12:26:23.903Z,14.46
2023-01-09T12:45:23.473Z,10.64
2023-01-09T12:55:23.185Z,8.69
2023-01-09T12:56:23.159Z,8.96
2023-01-09T12:57:23.137Z,9.19
2023-01-09T12:58:23.112Z,9.15
2023-01-09T12:59:23.085Z,8.10
2023-01-09T13:00:23.059Z,8.12
2023-01-09T13:01:23.167Z,8.28
2023-01-09T13:02:23.061Z,8.62
2023-01-09T13:03:22.974Z,8.53
2023-01-09T13:04:22.958Z,7.67
2023-01-09T13:07:22.965Z,7.78
2023-01-09T19:54:15.295Z,1.90
2023-01-09T20:21:14.848Z,1.77
2023-01-09T20:22:14.834Z,1.73
2023-01-09T20:23:14.813Z,1.82
2023-01-09T20:24:14.792Z,1.86
2023-01-09T22:46:12.401Z,1.52
